sensor_id;sensor_type;location;lat;lon;timestamp;pressure;altitude;pressure_sealevel;temperature;humidity
4972;BME280;2501;51.214;6.768;2023-04-29T00:00:59;101008.38;;;12.15;88.13
4972;BME280;2501;51.214;6.768;2023-04-29T00:03:28;101005.72;;;12.04;88.80
4972;BME280;2501;51.214;6.768;2023-04-29T00:06:00;101016.25;;;12.04;89.17
4972;BME280;2501;51.214;6.768;2023-04-29T00:08:28;101010.94;;;11.98;89.30
4972;BME280;2501;51.214;6.768;2023-04-29T00:10:57;101021.44;;;11.91;90.02
4972;BME280;2501;51.214;6.768;2023-04-29T00:13:25;101013.59;;;12.01;89.96
4972;BME280;2501;51.214;6.768;2023-04-29T00:15:54;101026.69;;;11.97;90.65
4972;BME280;2501;51.214;6.768;2023-04-29T00:18:22;101027.31;;;11.51;92.60
4972;BME280;2501;51.214;6.768;2023-04-29T00:20:51;101036.06;;;11.52;94.26
4972;BME280;2501;51.214;6.768;2023-04-29T00:23:22;101030.00;;;11.62;94.76
4972;BME280;2501;51.214;6.768;2023-04-29T00:25:51;101030.06;;;11.71;95.67
4972;BME280;2501;51.214;6.768;2023-04-29T00:28:19;101038.69;;;11.52;96.51
4972;BME280;2501;51.214;6.768;2023-04-29T00:30:47;101043.94;;;11.50;96.92
4972;BME280;2501;51.214;6.768;2023-04-29T00:33:16;101042.13;;;11.40;97.85
4972;BME280;2501;51.214;6.768;2023-04-29T00:35:44;101038.66;;;11.49;98.87
4972;BME280;2501;51.214;6.768;2023-04-29T00:38:13;101048.97;;;11.19;99.30
4972;BME280;2501;51.214;6.768;2023-04-29T00:40:44;101050.75;;;11.27;100.00
4972;BME280;2501;51.214;6.768;2023-04-29T00:43:12;101051.69;;;11.32;100.00
4972;BME280;2501;51.214;6.768;2023-04-29T00:45:41;101054.22;;;11.19;100.00
4972;BME280;2501;51.214;6.768;2023-04-29T00:48:10;101063.00;;;11.22;100.00
4972;BME280;2501;51.214;6.768;2023-04-29T00:50:39;101057.72;;;11.19;100.00
4972;BME280;2501;51.214;6.768;2023-04-29T00:53:08;101055.00;;;11.10;100.00
4972;BME280;2501;51.214;6.768;2023-04-29T00:55:37;101065.59;;;11.21;100.00
4972;BME280;2501;51.214;6.768;2023-04-29T00:58:09;101068.16;;;11.14;100.00
4972;BME280;2501;51.214;6.768;2023-04-29T01:00:37;101062.00;;;11.06;100.00
4972;BME280;2501;51.214;6.768;2023-04-29T01:03:06;101068.09;;;11.05;100.00
4972;BME280;2501;51.214;6.768;2023-04-29T01:05:36;101069.81;;;11.03;100.00
4972;BME280;2501;51.214;6.768;2023-04-29T01:08:15;101080.22;;;10.93;100.00
4972;BME280;2501;51.214;6.768;2023-04-29T01:10:53;101083.72;;;10.93;100.00
4972;BME280;2501;51.214;6.768;2023-04-29T01:13:30;101082.84;;;10.94;100.00
4972;BME280;2501;51.214;6.768;2023-04-29T01:16:03;101082.91;;;11.00;100.00
4972;BME280;2501;51.214;6.768;2023-04-29T01:18:36;101082.81;;;10.88;100.00
4972;BME280;2501;51.214;6.768;2023-04-29T01:21:07;101081.09;;;10.93;100.00
4972;BME280;2501;51.214;6.768;2023-04-29T01:23:38;101080.19;;;10.91;100.00
4972;BME280;2501;51.214;6.768;2023-04-29T01:26:07;101083.72;;;10.95;100.00
4972;BME280;2501;51.214;6.768;2023-04-29T01:28:44;101088.09;;;10.94;100.00
4972;BME280;2501;51.214;6.768;2023-04-29T01:31:18;101089.13;;;11.07;100.00
4972;BME280;2501;51.214;6.768;2023-04-29T01:33:57;101091.72;;;11.05;100.00
4972;BME280;2501;51.214;6.768;2023-04-29T01:36:32;101092.34;;;10.80;100.00
4972;BME280;2501;51.214;6.768;2023-04-29T01:39:13;101097.69;;;10.89;100.00
4972;BME280;2501;51.214;6.768;2023-04-29T01:41:43;101096.72;;;10.81;100.00
4972;BME280;2501;51.214;6.768;2023-04-29T01:44:14;101103.66;;;10.73;100.00
4972;BME280;2501;51.214;6.768;2023-04-29T01:46:50;101098.31;;;10.67;100.00
4972;BME280;2501;51.214;6.768;2023-04-29T01:49:19;101101.72;;;10.60;100.00
4972;BME280;2501;51.214;6.768;2023-04-29T01:51:48;101104.41;;;10.64;100.00
4972;BME280;2501;51.214;6.768;2023-04-29T01:54:19;101109.66;;;10.64;100.00
4972;BME280;2501;51.214;6.768;2023-04-29T01:56:48;101110.34;;;10.48;100.00
4972;BME280;2501;51.214;6.768;2023-04-29T01:59:16;101110.41;;;10.53;100.00
4972;BME280;2501;51.214;6.768;2023-04-29T02:01:45;101112.09;;;10.48;100.00
4972;BME280;2501;51.214;6.768;2023-04-29T02:04:13;101120.63;;;10.31;100.00
4972;BME280;2501;51.214;6.768;2023-04-29T02:06:42;101117.00;;;10.23;100.00
4972;BME280;2501;51.214;6.768;2023-04-29T02:09:11;101117.22;;;10.38;100.00
4972;BME280;2501;51.214;6.768;2023-04-29T02:11:42;101127.69;;;10.37;100.00
4972;BME280;2501;51.214;6.768;2023-04-29T02:14:11;101125.97;;;10.40;100.00
4972;BME280;2501;51.214;6.768;2023-04-29T02:16:39;101130.31;;;10.37;100.00
4972;BME280;2501;51.214;6.768;2023-04-29T02:19:11;101129.50;;;10.42;100.00
4972;BME280;2501;51.214;6.768;2023-04-29T02:21:39;101146.00;;;10.34;100.00
4972;BME280;2501;51.214;6.768;2023-04-29T02:24:08;101137.97;;;10.20;100.00
4972;BME280;2501;51.214;6.768;2023-04-29T02:26:36;101146.63;;;10.18;100.00
4972;BME280;2501;51.214;6.768;2023-04-29T02:29:08;101147.25;;;10.00;100.00
4972;BME280;2501;51.214;6.768;2023-04-29T02:31:36;101143.88;;;10.10;100.00
4972;BME280;2501;51.214;6.768;2023-04-29T02:34:05;101149.06;;;10.07;100.00
4972;BME280;2501;51.214;6.768;2023-04-29T02:36:33;101147.63;;;10.26;100.00
4972;BME280;2501;51.214;6.768;2023-04-29T02:39:02;101152.88;;;10.26;100.00
4972;BME280;2501;51.214;6.768;2023-04-29T02:41:30;101155.09;;;9.98;100.00
4972;BME280;2501;51.214;6.768;2023-04-29T02:43:58;101155.47;;;10.21;100.00
4972;BME280;2501;51.214;6.768;2023-04-29T02:46:30;101162.34;;;10.16;100.00
4972;BME280;2501;51.214;6.768;2023-04-29T02:49:00;101164.75;;;10.01;100.00
4972;BME280;2501;51.214;6.768;2023-04-29T02:51:28;101163.69;;;9.90;100.00
4972;BME280;2501;51.214;6.768;2023-04-29T02:53:57;101177.72;;;9.95;100.00
4972;BME280;2501;51.214;6.768;2023-04-29T02:56:26;101172.44;;;9.92;100.00
4972;BME280;2501;51.214;6.768;2023-04-29T02:58:54;101175.88;;;9.88;100.00
4972;BME280;2501;51.214;6.768;2023-04-29T03:01:23;101174.72;;;9.69;100.00
4972;BME280;2501;51.214;6.768;2023-04-29T03:03:54;101187.63;;;9.58;100.00
4972;BME280;2501;51.214;6.768;2023-04-29T03:06:22;101184.94;;;9.55;100.00
4972;BME280;2501;51.214;6.768;2023-04-29T03:08:52;101184.41;;;9.74;100.00
4972;BME280;2501;51.214;6.768;2023-04-29T03:11:21;101185.91;;;9.60;100.00
4972;BME280;2501;51.214;6.768;2023-04-29T03:13:50;101190.88;;;9.43;100.00
4972;BME280;2501;51.214;6.768;2023-04-29T03:16:18;101178.81;;;9.55;100.00
4972;BME280;2501;51.214;6.768;2023-04-29T03:18:47;101183.13;;;9.50;100.00
4972;BME280;2501;51.214;6.768;2023-04-29T03:21:18;101189.00;;;9.35;100.00
4972;BME280;2501;51.214;6.768;2023-04-29T03:23:47;101192.47;;;9.34;100.00
4972;BME280;2501;51.214;6.768;2023-04-29T03:26:15;101199.34;;;9.29;100.00
4972;BME280;2501;51.214;6.768;2023-04-29T03:28:43;101205.50;;;9.32;100.00
4972;BME280;2501;51.214;6.768;2023-04-29T03:31:12;101201.88;;;9.26;100.00
4972;BME280;2501;51.214;6.768;2023-04-29T03:33:40;101206.22;;;9.24;100.00
4972;BME280;2501;51.214;6.768;2023-04-29T03:36:09;101206.28;;;9.27;100.00
4972;BME280;2501;51.214;6.768;2023-04-29T03:38:40;101199.16;;;9.20;100.00
4972;BME280;2501;51.214;6.768;2023-04-29T03:41:08;101203.84;;;9.37;100.00
4972;BME280;2501;51.214;6.768;2023-04-29T03:43:37;101201.34;;;9.43;100.00
4972;BME280;2501;51.214;6.768;2023-04-29T03:46:08;101200.91;;;9.21;100.00
4972;BME280;2501;51.214;6.768;2023-04-29T03:48:37;101204.66;;;9.33;100.00
4972;BME280;2501;51.214;6.768;2023-04-29T03:51:05;101201.25;;;9.39;100.00
4972;BME280;2501;51.214;6.768;2023-04-29T03:53:34;101210.75;;;9.32;100.00
4972;BME280;2501;51.214;6.768;2023-04-29T03:56:06;101205.53;;;9.35;100.00
4972;BME280;2501;51.214;6.768;2023-04-29T03:58:34;101214.88;;;9.21;100.00
4972;BME280;2501;51.214;6.768;2023-04-29T04:01:03;101214.81;;;9.17;100.00
4972;BME280;2501;51.214;6.768;2023-04-29T04:03:31;101218.53;;;9.29;100.00
4972;BME280;2501;51.214;6.768;2023-04-29T04:06:00;101218.28;;;9.16;100.00
4972;BME280;2501;51.214;6.768;2023-04-29T04:08:28;101219.06;;;9.12;100.00
4972;BME280;2501;51.214;6.768;2023-04-29T04:10:56;101230.38;;;9.09;100.00
4972;BME280;2501;51.214;6.768;2023-04-29T04:13:30;101230.44;;;9.12;100.00
4972;BME280;2501;51.214;6.768;2023-04-29T04:15:58;101231.72;;;9.34;100.00
4972;BME280;2501;51.214;6.768;2023-04-29T04:18:27;101233.44;;;9.32;100.00
4972;BME280;2501;51.214;6.768;2023-04-29T04:20:55;101235.59;;;9.09;100.00
4972;BME280;2501;51.214;6.768;2023-04-29T04:23:23;101235.91;;;9.26;100.00
4972;BME280;2501;51.214;6.768;2023-04-29T04:25:52;101238.38;;;9.17;100.00
4972;BME280;2501;51.214;6.768;2023-04-29T04:28:20;101240.91;;;9.12;100.00
4972;BME280;2501;51.214;6.768;2023-04-29T04:30:51;101242.75;;;9.19;100.00
4972;BME280;2501;51.214;6.768;2023-04-29T04:33:20;101239.59;;;9.37;100.00
4972;BME280;2501;51.214;6.768;2023-04-29T04:35:48;101248.84;;;9.17;100.00
4972;BME280;2501;51.214;6.768;2023-04-29T04:38:16;101245.28;;;9.13;100.00
4972;BME280;2501;51.214;6.768;2023-04-29T04:40:46;101258.53;;;9.22;100.00
4972;BME280;2501;51.214;6.768;2023-04-29T04:43:14;101251.09;;;9.43;100.00
4972;BME280;2501;51.214;6.768;2023-04-29T04:45:43;101256.72;;;9.20;100.00
4972;BME280;2501;51.214;6.768;2023-04-29T04:48:14;101262.31;;;9.38;100.00
4972;BME280;2501;51.214;6.768;2023-04-29T04:50:42;101259.09;;;9.51;100.00
4972;BME280;2501;51.214;6.768;2023-04-29T04:53:11;101270.28;;;9.44;100.00
4972;BME280;2501;51.214;6.768;2023-04-29T04:55:40;101268.50;;;9.41;100.00
4972;BME280;2501;51.214;6.768;2023-04-29T04:58:08;101288.09;;;9.18;100.00
4972;BME280;2501;51.214;6.768;2023-04-29T05:00:36;101276.31;;;9.40;100.00
4972;BME280;2501;51.214;6.768;2023-04-29T05:03:05;101278.94;;;9.40;100.00
4972;BME280;2501;51.214;6.768;2023-04-29T05:05:36;101287.56;;;9.34;100.00
4972;BME280;2501;51.214;6.768;2023-04-29T05:08:04;101286.47;;;9.23;100.00
4972;BME280;2501;51.214;6.768;2023-04-29T05:10:35;101282.34;;;9.36;100.00
4972;BME280;2501;51.214;6.768;2023-04-29T05:13:03;101288.59;;;9.42;100.00
4972;BME280;2501;51.214;6.768;2023-04-29T05:15:31;101292.91;;;9.40;100.00
4972;BME280;2501;51.214;6.768;2023-04-29T05:18:00;101310.19;;;9.31;100.00
4972;BME280;2501;51.214;6.768;2023-04-29T05:20:28;101305.66;;;9.24;100.00
4972;BME280;2501;51.214;6.768;2023-04-29T05:22:59;101299.03;;;9.41;100.00
4972;BME280;2501;51.214;6.768;2023-04-29T05:25:28;101306.31;;;9.57;100.00
4972;BME280;2501;51.214;6.768;2023-04-29T05:27:56;101318.50;;;9.55;100.00
4972;BME280;2501;51.214;6.768;2023-04-29T05:30:25;101309.63;;;9.47;100.00
4972;BME280;2501;51.214;6.768;2023-04-29T05:32:53;101310.56;;;9.49;100.00
4972;BME280;2501;51.214;6.768;2023-04-29T05:35:22;101305.53;;;9.61;100.00
4972;BME280;2501;51.214;6.768;2023-04-29T05:37:50;101320.72;;;9.35;100.00
4972;BME280;2501;51.214;6.768;2023-04-29T05:40:21;101326.97;;;9.42;100.00
4972;BME280;2501;51.214;6.768;2023-04-29T05:42:50;101321.03;;;9.49;100.00
4972;BME280;2501;51.214;6.768;2023-04-29T05:45:18;101323.69;;;9.54;100.00
4972;BME280;2501;51.214;6.768;2023-04-29T05:47:47;101324.56;;;9.51;100.00
4972;BME280;2501;51.214;6.768;2023-04-29T05:50:15;101325.63;;;9.62;100.00
4972;BME280;2501;51.214;6.768;2023-04-29T05:52:44;101326.72;;;9.75;100.00
4972;BME280;2501;51.214;6.768;2023-04-29T05:55:12;101329.56;;;9.86;100.00
4972;BME280;2501;51.214;6.768;2023-04-29T05:57:43;101339.03;;;9.79;100.00
4972;BME280;2501;51.214;6.768;2023-04-29T06:00:12;101337.78;;;9.59;100.00
4972;BME280;2501;51.214;6.768;2023-04-29T06:02:41;101341.72;;;9.82;100.00
4972;BME280;2501;51.214;6.768;2023-04-29T06:05:10;101343.72;;;9.97;100.00
4972;BME280;2501;51.214;6.768;2023-04-29T06:07:39;101340.63;;;9.69;100.00
4972;BME280;2501;51.214;6.768;2023-04-29T06:10:08;101351.50;;;9.92;100.00
4972;BME280;2501;51.214;6.768;2023-04-29T06:12:37;101362.09;;;9.98;100.00
4972;BME280;2501;51.214;6.768;2023-04-29T06:15:09;101368.31;;;10.05;100.00
4972;BME280;2501;51.214;6.768;2023-04-29T06:17:38;101363.38;;;10.19;100.00
4972;BME280;2501;51.214;6.768;2023-04-29T06:20:08;101375.50;;;10.15;100.00
4972;BME280;2501;51.214;6.768;2023-04-29T06:22:36;101373.28;;;9.90;100.00
4972;BME280;2501;51.214;6.768;2023-04-29T06:25:05;101375.72;;;10.26;100.00
4972;BME280;2501;51.214;6.768;2023-04-29T06:27:34;101378.34;;;10.26;100.00
4972;BME280;2501;51.214;6.768;2023-04-29T06:30:03;101394.06;;;10.26;100.00
4972;BME280;2501;51.214;6.768;2023-04-29T06:32:34;101387.19;;;9.87;100.00
4972;BME280;2501;51.214;6.768;2023-04-29T06:35:03;101394.25;;;9.90;100.00
4972;BME280;2501;51.214;6.768;2023-04-29T06:37:31;101400.13;;;9.76;100.00
4972;BME280;2501;51.214;6.768;2023-04-29T06:40:00;101401.66;;;9.65;100.00
4972;BME280;2501;51.214;6.768;2023-04-29T06:42:28;101399.09;;;9.68;100.00
4972;BME280;2501;51.214;6.768;2023-04-29T06:44:57;101400.94;;;9.74;100.00
4972;BME280;2501;51.214;6.768;2023-04-29T06:47:25;101406.09;;;9.71;100.00
4972;BME280;2501;51.214;6.768;2023-04-29T06:49:57;101409.38;;;9.59;100.00
4972;BME280;2501;51.214;6.768;2023-04-29T06:52:25;101408.00;;;9.78;100.00
4972;BME280;2501;51.214;6.768;2023-04-29T06:54:54;101412.66;;;9.93;100.00
4972;BME280;2501;51.214;6.768;2023-04-29T06:57:23;101417.94;;;9.94;100.00
4972;BME280;2501;51.214;6.768;2023-04-29T06:59:51;101417.09;;;9.97;100.00
4972;BME280;2501;51.214;6.768;2023-04-29T07:02:20;101417.81;;;9.90;100.00
4972;BME280;2501;51.214;6.768;2023-04-29T07:04:48;101429.44;;;10.02;100.00
4972;BME280;2501;51.214;6.768;2023-04-29T07:07:20;101431.88;;;9.93;100.00
4972;BME280;2501;51.214;6.768;2023-04-29T07:09:48;101431.00;;;9.93;100.00
4972;BME280;2501;51.214;6.768;2023-04-29T07:12:18;101428.28;;;9.88;100.00
4972;BME280;2501;51.214;6.768;2023-04-29T07:14:47;101439.94;;;10.02;99.94
4972;BME280;2501;51.214;6.768;2023-04-29T07:17:15;101434.88;;;10.13;98.94
4972;BME280;2501;51.214;6.768;2023-04-29T07:19:43;101442.16;;;10.28;97.99
4972;BME280;2501;51.214;6.768;2023-04-29T07:22:12;101453.16;;;10.10;98.52
4972;BME280;2501;51.214;6.768;2023-04-29T07:24:43;101454.81;;;10.03;98.75
4972;BME280;2501;51.214;6.768;2023-04-29T07:27:11;101464.06;;;10.30;97.95
4972;BME280;2501;51.214;6.768;2023-04-29T07:29:40;101467.25;;;10.15;97.17
4972;BME280;2501;51.214;6.768;2023-04-29T07:32:09;101464.63;;;10.15;97.72
4972;BME280;2501;51.214;6.768;2023-04-29T07:34:37;101469.66;;;10.04;97.84
4972;BME280;2501;51.214;6.768;2023-04-29T07:37:06;101473.50;;;10.22;97.54
4972;BME280;2501;51.214;6.768;2023-04-29T07:39:34;101477.06;;;10.25;97.46
4972;BME280;2501;51.214;6.768;2023-04-29T07:42:05;101479.53;;;10.18;97.01
4972;BME280;2501;51.214;6.768;2023-04-29T07:44:34;101486.44;;;10.14;96.47
4972;BME280;2501;51.214;6.768;2023-04-29T07:47:02;101483.13;;;10.21;95.93
4972;BME280;2501;51.214;6.768;2023-04-29T07:49:31;101481.00;;;10.05;96.25
4972;BME280;2501;51.214;6.768;2023-04-29T07:51:59;101482.75;;;10.04;96.39
4972;BME280;2501;51.214;6.768;2023-04-29T07:54:28;101482.97;;;10.15;96.38
4972;BME280;2501;51.214;6.768;2023-04-29T07:56:57;101492.59;;;10.16;96.28
4972;BME280;2501;51.214;6.768;2023-04-29T07:59:28;101487.50;;;10.21;95.94
4972;BME280;2501;51.214;6.768;2023-04-29T08:01:57;101494.28;;;10.12;95.47
4972;BME280;2501;51.214;6.768;2023-04-29T08:04:25;101495.78;;;10.00;95.00
4972;BME280;2501;51.214;6.768;2023-04-29T08:06:54;101497.69;;;10.08;95.21
4972;BME280;2501;51.214;6.768;2023-04-29T08:09:22;101501.31;;;10.15;95.05
4972;BME280;2501;51.214;6.768;2023-04-29T08:11:51;101503.84;;;10.10;94.82
4972;BME280;2501;51.214;6.768;2023-04-29T08:14:19;101505.19;;;10.32;94.50
4972;BME280;2501;51.214;6.768;2023-04-29T08:16:50;101504.50;;;10.42;93.26
4972;BME280;2501;51.214;6.768;2023-04-29T08:19:19;101504.34;;;10.33;93.18
4972;BME280;2501;51.214;6.768;2023-04-29T08:21:48;101508.59;;;10.28;93.35
4972;BME280;2501;51.214;6.768;2023-04-29T08:24:17;101517.09;;;10.17;92.84
4972;BME280;2501;51.214;6.768;2023-04-29T08:26:46;101515.22;;;10.11;92.68
4972;BME280;2501;51.214;6.768;2023-04-29T08:29:16;101514.38;;;10.12;92.71
4972;BME280;2501;51.214;6.768;2023-04-29T08:31:44;101517.13;;;10.18;93.00
4972;BME280;2501;51.214;6.768;2023-04-29T08:34:17;101522.09;;;10.06;93.31
4972;BME280;2501;51.214;6.768;2023-04-29T08:36:45;101524.06;;;10.16;93.13
4972;BME280;2501;51.214;6.768;2023-04-29T08:39:14;101523.53;;;10.32;93.06
4972;BME280;2501;51.214;6.768;2023-04-29T08:41:42;101525.22;;;10.29;92.92
4972;BME280;2501;51.214;6.768;2023-04-29T08:44:15;101533.63;;;10.14;93.25
4972;BME280;2501;51.214;6.768;2023-04-29T08:46:44;101539.81;;;10.18;93.49
4972;BME280;2501;51.214;6.768;2023-04-29T08:49:13;101539.69;;;10.11;93.61
4972;BME280;2501;51.214;6.768;2023-04-29T08:51:47;101538.84;;;10.12;93.80
4972;BME280;2501;51.214;6.768;2023-04-29T08:54:16;101544.19;;;10.17;94.14
4972;BME280;2501;51.214;6.768;2023-04-29T08:56:45;101549.22;;;10.08;94.26
4972;BME280;2501;51.214;6.768;2023-04-29T08:59:14;101553.03;;;10.22;94.62
4972;BME280;2501;51.214;6.768;2023-04-29T09:01:45;101553.75;;;10.15;94.72
4972;BME280;2501;51.214;6.768;2023-04-29T09:04:29;101559.84;;;10.14;95.12
4972;BME280;2501;51.214;6.768;2023-04-29T09:07:04;101563.28;;;10.11;95.48
4972;BME280;2501;51.214;6.768;2023-04-29T09:09:34;101561.31;;;10.00;95.82
4972;BME280;2501;51.214;6.768;2023-04-29T09:12:03;101562.16;;;9.99;96.11
4972;BME280;2501;51.214;6.768;2023-04-29T09:14:32;101564.69;;;9.96;96.52
4972;BME280;2501;51.214;6.768;2023-04-29T09:17:00;101574.22;;;9.92;96.69
4972;BME280;2501;51.214;6.768;2023-04-29T09:19:30;101567.56;;;10.08;96.41
4972;BME280;2501;51.214;6.768;2023-04-29T09:21:59;101569.88;;;9.93;96.49
4972;BME280;2501;51.214;6.768;2023-04-29T09:24:31;101573.44;;;9.96;96.90
4972;BME280;2501;51.214;6.768;2023-04-29T09:27:00;101575.53;;;10.12;96.67
4972;BME280;2501;51.214;6.768;2023-04-29T09:29:29;101574.72;;;10.15;96.56
4972;BME280;2501;51.214;6.768;2023-04-29T09:31:59;101577.63;;;10.27;96.41
4972;BME280;2501;51.214;6.768;2023-04-29T09:34:31;101582.75;;;10.23;95.64
4972;BME280;2501;51.214;6.768;2023-04-29T09:37:00;101587.13;;;10.22;95.66
4972;BME280;2501;51.214;6.768;2023-04-29T09:39:37;101579.91;;;10.12;96.12
4972;BME280;2501;51.214;6.768;2023-04-29T09:42:06;101581.59;;;10.10;96.51
4972;BME280;2501;51.214;6.768;2023-04-29T09:44:34;101581.09;;;10.26;96.42
4972;BME280;2501;51.214;6.768;2023-04-29T09:47:04;101591.47;;;10.20;96.21
4972;BME280;2501;51.214;6.768;2023-04-29T09:49:34;101591.22;;;10.11;96.33
4972;BME280;2501;51.214;6.768;2023-04-29T09:52:06;101595.41;;;10.01;96.57
4972;BME280;2501;51.214;6.768;2023-04-29T09:54:39;101592.16;;;10.13;96.35
4972;BME280;2501;51.214;6.768;2023-04-29T09:57:09;101590.63;;;10.21;96.00
4972;BME280;2501;51.214;6.768;2023-04-29T09:59:39;101599.44;;;10.26;95.79
4972;BME280;2501;51.214;6.768;2023-04-29T10:02:12;101599.91;;;10.08;95.54
4972;BME280;2501;51.214;6.768;2023-04-29T10:04:44;101608.06;;;10.19;95.18
4972;BME280;2501;51.214;6.768;2023-04-29T10:07:14;101607.34;;;10.28;95.16
4972;BME280;2501;51.214;6.768;2023-04-29T10:09:46;101609.31;;;10.39;94.66
4972;BME280;2501;51.214;6.768;2023-04-29T10:12:16;101618.97;;;10.39;94.47
4972;BME280;2501;51.214;6.768;2023-04-29T10:14:49;101610.25;;;10.41;94.36
4972;BME280;2501;51.214;6.768;2023-04-29T10:17:25;101616.28;;;10.36;93.42
4972;BME280;2501;51.214;6.768;2023-04-29T10:19:57;101625.81;;;10.32;93.96
4972;BME280;2501;51.214;6.768;2023-04-29T10:22:34;101626.66;;;10.31;94.17
4972;BME280;2501;51.214;6.768;2023-04-29T10:25:07;101625.63;;;10.25;95.01
4972;BME280;2501;51.214;6.768;2023-04-29T10:27:41;101620.44;;;10.70;93.63
4972;BME280;2501;51.214;6.768;2023-04-29T10:30:12;101622.97;;;10.65;92.64
4972;BME280;2501;51.214;6.768;2023-04-29T10:32:41;101622.19;;;10.69;92.60
4972;BME280;2501;51.214;6.768;2023-04-29T10:35:11;101624.34;;;10.46;92.66
4972;BME280;2501;51.214;6.768;2023-04-29T10:37:40;101623.03;;;10.68;92.51
4972;BME280;2501;51.214;6.768;2023-04-29T10:40:15;101626.97;;;10.93;91.83
4972;BME280;2501;51.214;6.768;2023-04-29T10:42:47;101632.34;;;10.99;90.60
4972;BME280;2501;51.214;6.768;2023-04-29T10:45:18;101632.94;;;10.83;91.19
4972;BME280;2501;51.214;6.768;2023-04-29T10:48:08;101634.72;;;10.86;90.94
4972;BME280;2501;51.214;6.768;2023-04-29T10:50:59;101636.75;;;11.00;90.88
4972;BME280;2501;51.214;6.768;2023-04-29T10:53:29;101631.03;;;11.23;90.42
4972;BME280;2501;51.214;6.768;2023-04-29T10:56:03;101631.47;;;10.99;89.23
4972;BME280;2501;51.214;6.768;2023-04-29T10:58:34;101627.16;;;11.54;88.24
4972;BME280;2501;51.214;6.768;2023-04-29T11:01:03;101634.03;;;11.47;86.88
4972;BME280;2501;51.214;6.768;2023-04-29T11:03:49;101630.88;;;11.68;86.20
4972;BME280;2501;51.214;6.768;2023-04-29T11:06:21;101629.56;;;11.96;85.55
4972;BME280;2501;51.214;6.768;2023-04-29T11:08:59;101630.03;;;11.70;83.81
4972;BME280;2501;51.214;6.768;2023-04-29T11:11:55;101628.66;;;11.92;83.80
4972;BME280;2501;51.214;6.768;2023-04-29T11:14:28;101633.25;;;12.07;82.85
4972;BME280;2501;51.214;6.768;2023-04-29T11:16:58;101632.97;;;11.89;83.78
4972;BME280;2501;51.214;6.768;2023-04-29T11:19:31;101634.09;;;12.04;83.04
4972;BME280;2501;51.214;6.768;2023-04-29T11:22:07;101628.22;;;12.24;81.51
4972;BME280;2501;51.214;6.768;2023-04-29T11:24:41;101622.00;;;12.18;81.76
4972;BME280;2501;51.214;6.768;2023-04-29T11:27:18;101627.91;;;12.72;80.58
4972;BME280;2501;51.214;6.768;2023-04-29T11:29:50;101633.47;;;13.02;79.40
4972;BME280;2501;51.214;6.768;2023-04-29T11:32:22;101628.59;;;13.40;77.38
4972;BME280;2501;51.214;6.768;2023-04-29T11:34:51;101623.91;;;13.09;76.78
4972;BME280;2501;51.214;6.768;2023-04-29T11:37:21;101633.22;;;12.76;77.53
4972;BME280;2501;51.214;6.768;2023-04-29T11:39:50;101625.16;;;12.60;79.28
4972;BME280;2501;51.214;6.768;2023-04-29T11:42:22;101634.53;;;12.38;80.35
4972;BME280;2501;51.214;6.768;2023-04-29T11:44:51;101630.25;;;12.46;80.49
4972;BME280;2501;51.214;6.768;2023-04-29T11:47:25;101638.13;;;12.47;80.21
4972;BME280;2501;51.214;6.768;2023-04-29T11:50:01;101641.22;;;12.85;78.56
4972;BME280;2501;51.214;6.768;2023-04-29T11:52:30;101635.53;;;13.29;77.42
4972;BME280;2501;51.214;6.768;2023-04-29T11:54:58;101633.16;;;13.59;76.41
4972;BME280;2501;51.214;6.768;2023-04-29T11:57:29;101632.53;;;13.99;74.08
4972;BME280;2501;51.214;6.768;2023-04-29T11:59:58;101641.59;;;13.20;74.81
4972;BME280;2501;51.214;6.768;2023-04-29T12:02:30;101648.13;;;13.68;74.11
4972;BME280;2501;51.214;6.768;2023-04-29T12:04:58;101635.25;;;14.11;72.10
4972;BME280;2501;51.214;6.768;2023-04-29T12:07:27;101638.84;;;14.25;70.93
4972;BME280;2501;51.214;6.768;2023-04-29T12:09:56;101640.34;;;13.86;71.38
4972;BME280;2501;51.214;6.768;2023-04-29T12:12:25;101637.56;;;13.62;73.14
4972;BME280;2501;51.214;6.768;2023-04-29T12:14:58;101637.59;;;13.70;73.13
4972;BME280;2501;51.214;6.768;2023-04-29T12:17:27;101635.47;;;14.55;70.61
4972;BME280;2501;51.214;6.768;2023-04-29T12:19:56;101631.09;;;14.61;69.63
4972;BME280;2501;51.214;6.768;2023-04-29T12:22:30;101631.16;;;14.71;67.70
4972;BME280;2501;51.214;6.768;2023-04-29T12:24:58;101637.22;;;14.48;68.04
4972;BME280;2501;51.214;6.768;2023-04-29T12:27:27;101632.06;;;14.91;68.27
4972;BME280;2501;51.214;6.768;2023-04-29T12:29:58;101638.19;;;14.69;68.54
4972;BME280;2501;51.214;6.768;2023-04-29T12:32:26;101636.47;;;14.95;66.70
4972;BME280;2501;51.214;6.768;2023-04-29T12:34:55;101631.22;;;15.13;66.37
4972;BME280;2501;51.214;6.768;2023-04-29T12:37:23;101636.03;;;13.94;69.52
4972;BME280;2501;51.214;6.768;2023-04-29T12:39:53;101643.63;;;13.49;71.90
4972;BME280;2501;51.214;6.768;2023-04-29T12:42:22;101645.88;;;14.27;71.33
4972;BME280;2501;51.214;6.768;2023-04-29T12:44:50;101637.97;;;13.11;74.14
4972;BME280;2501;51.214;6.768;2023-04-29T12:47:21;101638.13;;;14.58;70.04
4972;BME280;2501;51.214;6.768;2023-04-29T12:49:50;101629.34;;;14.62;68.10
4972;BME280;2501;51.214;6.768;2023-04-29T12:52:18;101630.16;;;14.43;67.96
4972;BME280;2501;51.214;6.768;2023-04-29T12:54:47;101630.19;;;14.52;67.63
4972;BME280;2501;51.214;6.768;2023-04-29T12:57:15;101632.03;;;14.82;66.36
4972;BME280;2501;51.214;6.768;2023-04-29T12:59:44;101632.13;;;15.52;63.04
4972;BME280;2501;51.214;6.768;2023-04-29T13:02:12;101630.31;;;15.93;62.08
4972;BME280;2501;51.214;6.768;2023-04-29T13:04:43;101628.50;;;16.18;59.40
4972;BME280;2501;51.214;6.768;2023-04-29T13:07:12;101638.22;;;14.93;62.27
4972;BME280;2501;51.214;6.768;2023-04-29T13:09:40;101634.78;;;15.38;62.40
4972;BME280;2501;51.214;6.768;2023-04-29T13:12:09;101638.25;;;15.02;61.40
4972;BME280;2501;51.214;6.768;2023-04-29T13:14:37;101638.19;;;14.78;64.14
4972;BME280;2501;51.214;6.768;2023-04-29T13:17:06;101631.22;;;15.31;63.10
4972;BME280;2501;51.214;6.768;2023-04-29T13:19:34;101638.06;;;14.43;64.13
4972;BME280;2501;51.214;6.768;2023-04-29T13:22:05;101637.22;;;14.47;64.96
4972;BME280;2501;51.214;6.768;2023-04-29T13:24:34;101637.88;;;14.11;66.19